sensor_id;sensor_type;location;lat;lon;timestamp;P1;durP1;ratioP1;P2;durP2;ratioP2
63688;SDS011;54895;40.928;14.480;2024-02-23T00:00:48;21.98;;;14.57;;
63688;SDS011;54895;40.928;14.480;2024-02-23T00:03:15;23.55;;;15.13;;
63688;SDS011;54895;40.928;14.480;2024-02-23T00:05:41;23.02;;;15.88;;
63688;SDS011;54895;40.928;14.480;2024-02-23T00:08:07;23.98;;;15.18;;
63688;SDS011;54895;40.928;14.480;2024-02-23T00:10:34;30.70;;;16.25;;
63688;SDS011;54895;40.928;14.480;2024-02-23T00:13:01;25.48;;;16.20;;
63688;SDS011;54895;40.928;14.480;2024-02-23T00:15:27;25.63;;;17.33;;
63688;SDS011;54895;40.928;14.480;2024-02-23T00:21:08;23.90;;;15.25;;
63688;SDS011;54895;40.928;14.480;2024-02-23T00:23:35;25.90;;;17.00;;
63688;SDS011;54895;40.928;14.480;2024-02-23T00:26:10;25.35;;;16.70;;
63688;SDS011;54895;40.928;14.480;2024-02-23T00:28:39;23.45;;;14.10;;
63688;SDS011;54895;40.928;14.480;2024-02-23T00:31:05;21.60;;;14.95;;
63688;SDS011;54895;40.928;14.480;2024-02-23T00:33:32;22.08;;;14.40;;
63688;SDS011;54895;40.928;14.480;2024-02-23T00:35:59;22.38;;;14.32;;
63688;SDS011;54895;40.928;14.480;2024-02-23T00:38:25;23.13;;;14.70;;
63688;SDS011;54895;40.928;14.480;2024-02-23T00:40:51;22.25;;;13.93;;
63688;SDS011;54895;40.928;14.480;2024-02-23T00:43:18;22.23;;;14.38;;
63688;SDS011;54895;40.928;14.480;2024-02-23T00:45:45;19.33;;;13.13;;
63688;SDS011;54895;40.928;14.480;2024-02-23T00:48:11;19.73;;;12.75;;
63688;SDS011;54895;40.928;14.480;2024-02-23T00:50:39;20.88;;;11.73;;
63688;SDS011;54895;40.928;14.480;2024-02-23T00:53:05;18.67;;;12.85;;
63688;SDS011;54895;40.928;14.480;2024-02-23T00:55:32;18.15;;;11.93;;
63688;SDS011;54895;40.928;14.480;2024-02-23T00:57:58;16.95;;;11.65;;
63688;SDS011;54895;40.928;14.480;2024-02-23T01:00:25;14.05;;;10.38;;
63688;SDS011;54895;40.928;14.480;2024-02-23T01:02:51;10.82;;;6.95;;
63688;SDS011;54895;40.928;14.480;2024-02-23T01:05:17;9.93;;;6.38;;
63688;SDS011;54895;40.928;14.480;2024-02-23T01:07:43;10.23;;;6.53;;
63688;SDS011;54895;40.928;14.480;2024-02-23T01:10:10;8.35;;;6.05;;
63688;SDS011;54895;40.928;14.480;2024-02-23T01:12:36;6.55;;;5.30;;
63688;SDS011;54895;40.928;14.480;2024-02-23T01:15:03;8.32;;;5.13;;
63688;SDS011;54895;40.928;14.480;2024-02-23T01:17:29;8.30;;;5.22;;
63688;SDS011;54895;40.928;14.480;2024-02-23T01:22:46;13.80;;;8.38;;
63688;SDS011;54895;40.928;14.480;2024-02-23T01:25:12;11.45;;;8.18;;
63688;SDS011;54895;40.928;14.480;2024-02-23T01:27:41;9.73;;;7.57;;
63688;SDS011;54895;40.928;14.480;2024-02-23T01:30:08;11.48;;;7.50;;
63688;SDS011;54895;40.928;14.480;2024-02-23T01:32:34;14.27;;;8.60;;
63688;SDS011;54895;40.928;14.480;2024-02-23T01:35:03;8.85;;;6.57;;
63688;SDS011;54895;40.928;14.480;2024-02-23T01:37:30;10.57;;;6.95;;
63688;SDS011;54895;40.928;14.480;2024-02-23T01:39:57;11.98;;;8.20;;
63688;SDS011;54895;40.928;14.480;2024-02-23T01:42:25;11.55;;;8.40;;
63688;SDS011;54895;40.928;14.480;2024-02-23T01:44:52;8.90;;;7.00;;
63688;SDS011;54895;40.928;14.480;2024-02-23T01:47:18;12.60;;;7.72;;
63688;SDS011;54895;40.928;14.480;2024-02-23T01:49:45;10.75;;;7.60;;
63688;SDS011;54895;40.928;14.480;2024-02-23T01:52:12;8.68;;;7.15;;
63688;SDS011;54895;40.928;14.480;2024-02-23T01:54:40;9.25;;;5.80;;
63688;SDS011;54895;40.928;14.480;2024-02-23T01:57:07;11.20;;;7.53;;
63688;SDS011;54895;40.928;14.480;2024-02-23T01:59:35;7.78;;;5.50;;
63688;SDS011;54895;40.928;14.480;2024-02-23T02:02:04;6.88;;;5.07;;
63688;SDS011;54895;40.928;14.480;2024-02-23T02:04:31;7.88;;;5.43;;
63688;SDS011;54895;40.928;14.480;2024-02-23T02:06:58;7.43;;;4.90;;
63688;SDS011;54895;40.928;14.480;2024-02-23T02:09:25;5.90;;;4.53;;
63688;SDS011;54895;40.928;14.480;2024-02-23T02:11:51;6.82;;;4.28;;
63688;SDS011;54895;40.928;14.480;2024-02-23T02:14:18;6.90;;;5.00;;
63688;SDS011;54895;40.928;14.480;2024-02-23T02:16:45;6.45;;;5.05;;
63688;SDS011;54895;40.928;14.480;2024-02-23T02:19:11;8.30;;;5.15;;
63688;SDS011;54895;40.928;14.480;2024-02-23T02:25:01;9.18;;;5.03;;
63688;SDS011;54895;40.928;14.480;2024-02-23T02:27:30;10.45;;;5.45;;
63688;SDS011;54895;40.928;14.480;2024-02-23T02:29:56;8.88;;;4.95;;
63688;SDS011;54895;40.928;14.480;2024-02-23T02:32:24;8.68;;;4.88;;
63688;SDS011;54895;40.928;14.480;2024-02-23T02:34:50;7.70;;;4.85;;
63688;SDS011;54895;40.928;14.480;2024-02-23T02:37:16;7.28;;;4.88;;
63688;SDS011;54895;40.928;14.480;2024-02-23T02:39:42;7.03;;;5.40;;
63688;SDS011;54895;40.928;14.480;2024-02-23T02:42:09;9.75;;;5.68;;
63688;SDS011;54895;40.928;14.480;2024-02-23T02:44:36;8.98;;;4.85;;
63688;SDS011;54895;40.928;14.480;2024-02-23T02:47:02;7.75;;;5.18;;
63688;SDS011;54895;40.928;14.480;2024-02-23T02:49:29;6.35;;;4.95;;
63688;SDS011;54895;40.928;14.480;2024-02-23T02:51:55;6.63;;;5.07;;
63688;SDS011;54895;40.928;14.480;2024-02-23T02:54:21;7.35;;;4.90;;
63688;SDS011;54895;40.928;14.480;2024-02-23T02:56:47;7.68;;;4.25;;
63688;SDS011;54895;40.928;14.480;2024-02-23T02:59:16;6.40;;;4.50;;
63688;SDS011;54895;40.928;14.480;2024-02-23T03:01:44;7.97;;;5.35;;
63688;SDS011;54895;40.928;14.480;2024-02-23T03:04:11;6.60;;;4.35;;
63688;SDS011;54895;40.928;14.480;2024-02-23T03:06:37;19.42;;;6.47;;
63688;SDS011;54895;40.928;14.480;2024-02-23T03:09:04;7.65;;;4.07;;
63688;SDS011;54895;40.928;14.480;2024-02-23T03:11:30;6.82;;;4.85;;
63688;SDS011;54895;40.928;14.480;2024-02-23T03:13:57;6.60;;;4.55;;
63688;SDS011;54895;40.928;14.480;2024-02-23T03:16:23;5.75;;;4.40;;
63688;SDS011;54895;40.928;14.480;2024-02-23T03:18:52;8.82;;;5.60;;
63688;SDS011;54895;40.928;14.480;2024-02-23T03:21:20;10.30;;;5.53;;
63688;SDS011;54895;40.928;14.480;2024-02-23T03:26:29;6.90;;;5.15;;
63688;SDS011;54895;40.928;14.480;2024-02-23T03:28:55;8.48;;;4.60;;
63688;SDS011;54895;40.928;14.480;2024-02-23T03:31:22;7.63;;;4.28;;
63688;SDS011;54895;40.928;14.480;2024-02-23T03:33:48;6.38;;;4.65;;
63688;SDS011;54895;40.928;14.480;2024-02-23T03:36:14;7.15;;;4.72;;
63688;SDS011;54895;40.928;14.480;2024-02-23T03:38:40;7.05;;;4.68;;
63688;SDS011;54895;40.928;14.480;2024-02-23T03:41:07;9.80;;;4.93;;
63688;SDS011;54895;40.928;14.480;2024-02-23T03:43:33;7.15;;;4.90;;
63688;SDS011;54895;40.928;14.480;2024-02-23T03:46:00;8.35;;;4.72;;
63688;SDS011;54895;40.928;14.480;2024-02-23T03:48:26;7.78;;;5.22;;
63688;SDS011;54895;40.928;14.480;2024-02-23T03:50:53;9.77;;;5.47;;
63688;SDS011;54895;40.928;14.480;2024-02-23T03:53:20;5.93;;;4.70;;
63688;SDS011;54895;40.928;14.480;2024-02-23T03:55:46;5.32;;;3.90;;
63688;SDS011;54895;40.928;14.480;2024-02-23T03:58:12;5.97;;;4.60;;
63688;SDS011;54895;40.928;14.480;2024-02-23T04:00:38;11.55;;;5.18;;
63688;SDS011;54895;40.928;14.480;2024-02-23T04:03:05;6.78;;;4.97;;
63688;SDS011;54895;40.928;14.480;2024-02-23T04:05:31;5.03;;;3.47;;
63688;SDS011;54895;40.928;14.480;2024-02-23T04:07:58;5.82;;;3.65;;
63688;SDS011;54895;40.928;14.480;2024-02-23T04:10:24;7.72;;;4.13;;
63688;SDS011;54895;40.928;14.480;2024-02-23T04:12:50;5.32;;;3.90;;
63688;SDS011;54895;40.928;14.480;2024-02-23T04:15:16;6.40;;;4.28;;
63688;SDS011;54895;40.928;14.480;2024-02-23T04:17:44;5.88;;;3.85;;
63688;SDS011;54895;40.928;14.480;2024-02-23T04:20:11;5.93;;;4.53;;
63688;SDS011;54895;40.928;14.480;2024-02-23T04:26:20;5.65;;;4.40;;
63688;SDS011;54895;40.928;14.480;2024-02-23T04:28:46;7.07;;;4.60;;
63688;SDS011;54895;40.928;14.480;2024-02-23T04:31:13;8.00;;;4.00;;
63688;SDS011;54895;40.928;14.480;2024-02-23T04:33:39;7.13;;;4.75;;
63688;SDS011;54895;40.928;14.480;2024-02-23T04:36:06;6.38;;;4.82;;
63688;SDS011;54895;40.928;14.480;2024-02-23T04:38:35;7.85;;;4.65;;
63688;SDS011;54895;40.928;14.480;2024-02-23T04:41:02;8.20;;;4.47;;
63688;SDS011;54895;40.928;14.480;2024-02-23T04:43:33;6.82;;;4.20;;
63688;SDS011;54895;40.928;14.480;2024-02-23T04:45:59;7.55;;;4.47;;
63688;SDS011;54895;40.928;14.480;2024-02-23T04:48:26;6.70;;;4.97;;
63688;SDS011;54895;40.928;14.480;2024-02-23T04:50:52;5.50;;;4.40;;
63688;SDS011;54895;40.928;14.480;2024-02-23T04:53:19;7.60;;;4.38;;
63688;SDS011;54895;40.928;14.480;2024-02-23T04:55:46;5.38;;;4.40;;
63688;SDS011;54895;40.928;14.480;2024-02-23T04:58:12;6.18;;;3.97;;
63688;SDS011;54895;40.928;14.480;2024-02-23T05:00:39;6.47;;;4.20;;
63688;SDS011;54895;40.928;14.480;2024-02-23T05:03:05;8.00;;;4.35;;
63688;SDS011;54895;40.928;14.480;2024-02-23T05:05:32;6.30;;;4.50;;
63688;SDS011;54895;40.928;14.480;2024-02-23T05:07:59;8.15;;;4.43;;
63688;SDS011;54895;40.928;14.480;2024-02-23T05:10:25;5.35;;;3.38;;
63688;SDS011;54895;40.928;14.480;2024-02-23T05:12:52;5.40;;;3.80;;
63688;SDS011;54895;40.928;14.480;2024-02-23T05:15:18;4.50;;;2.75;;
63688;SDS011;54895;40.928;14.480;2024-02-23T05:17:45;5.65;;;3.75;;
63688;SDS011;54895;40.928;14.480;2024-02-23T05:20:12;6.72;;;4.32;;
63688;SDS011;54895;40.928;14.480;2024-02-23T05:22:40;5.88;;;4.00;;
63688;SDS011;54895;40.928;14.480;2024-02-23T05:25:06;6.78;;;4.18;;
63688;SDS011;54895;40.928;14.480;2024-02-23T05:27:33;5.95;;;4.35;;
63688;SDS011;54895;40.928;14.480;2024-02-23T05:30:00;8.00;;;3.70;;
63688;SDS011;54895;40.928;14.480;2024-02-23T05:32:26;6.10;;;4.25;;
63688;SDS011;54895;40.928;14.480;2024-02-23T05:34:53;7.22;;;4.15;;
63688;SDS011;54895;40.928;14.480;2024-02-23T05:37:20;7.57;;;4.63;;
63688;SDS011;54895;40.928;14.480;2024-02-23T05:39:47;6.38;;;3.70;;
63688;SDS011;54895;40.928;14.480;2024-02-23T05:42:13;6.53;;;4.13;;
63688;SDS011;54895;40.928;14.480;2024-02-23T05:44:43;7.65;;;4.10;;
63688;SDS011;54895;40.928;14.480;2024-02-23T05:47:09;9.63;;;4.10;;
63688;SDS011;54895;40.928;14.480;2024-02-23T05:49:36;6.65;;;3.70;;
63688;SDS011;54895;40.928;14.480;2024-02-23T05:52:03;5.93;;;4.03;;
63688;SDS011;54895;40.928;14.480;2024-02-23T05:54:30;7.75;;;4.20;;
63688;SDS011;54895;40.928;14.480;2024-02-23T05:56:56;6.88;;;4.18;;
63688;SDS011;54895;40.928;14.480;2024-02-23T05:59:23;4.47;;;3.40;;
63688;SDS011;54895;40.928;14.480;2024-02-23T06:01:50;6.18;;;4.00;;
63688;SDS011;54895;40.928;14.480;2024-02-23T06:04:18;7.28;;;4.00;;
63688;SDS011;54895;40.928;14.480;2024-02-23T06:06:45;5.25;;;3.80;;
63688;SDS011;54895;40.928;14.480;2024-02-23T06:09:12;5.55;;;2.92;;
63688;SDS011;54895;40.928;14.480;2024-02-23T06:11:39;7.75;;;4.40;;
63688;SDS011;54895;40.928;14.480;2024-02-23T06:14:05;6.78;;;4.25;;
63688;SDS011;54895;40.928;14.480;2024-02-23T06:16:32;7.65;;;4.20;;
63688;SDS011;54895;40.928;14.480;2024-02-23T06:18:58;6.32;;;3.50;;
63688;SDS011;54895;40.928;14.480;2024-02-23T06:21:25;8.65;;;4.20;;
63688;SDS011;54895;40.928;14.480;2024-02-23T06:26:51;7.03;;;4.07;;
63688;SDS011;54895;40.928;14.480;2024-02-23T06:29:18;6.18;;;3.38;;
63688;SDS011;54895;40.928;14.480;2024-02-23T06:31:44;5.18;;;3.75;;
63688;SDS011;54895;40.928;14.480;2024-02-23T06:34:15;7.53;;;4.18;;
63688;SDS011;54895;40.928;14.480;2024-02-23T06:36:41;7.00;;;3.95;;
63688;SDS011;54895;40.928;14.480;2024-02-23T06:39:08;6.05;;;3.83;;
63688;SDS011;54895;40.928;14.480;2024-02-23T06:41:34;8.43;;;3.88;;
63688;SDS011;54895;40.928;14.480;2024-02-23T06:44:01;6.55;;;3.95;;
63688;SDS011;54895;40.928;14.480;2024-02-23T06:46:27;3.38;;;3.08;;
63688;SDS011;54895;40.928;14.480;2024-02-23T06:48:54;4.25;;;2.97;;
63688;SDS011;54895;40.928;14.480;2024-02-23T06:51:20;8.38;;;3.67;;
63688;SDS011;54895;40.928;14.480;2024-02-23T06:53:46;5.55;;;3.53;;
63688;SDS011;54895;40.928;14.480;2024-02-23T06:56:13;8.98;;;4.10;;
63688;SDS011;54895;40.928;14.480;2024-02-23T06:58:39;6.55;;;3.78;;
63688;SDS011;54895;40.928;14.480;2024-02-23T07:01:06;5.93;;;3.70;;
63688;SDS011;54895;40.928;14.480;2024-02-23T07:03:33;7.18;;;3.65;;
63688;SDS011;54895;40.928;14.480;2024-02-23T07:06:01;5.15;;;3.35;;
63688;SDS011;54895;40.928;14.480;2024-02-23T07:08:27;8.77;;;4.00;;
63688;SDS011;54895;40.928;14.480;2024-02-23T07:10:54;6.50;;;3.28;;
63688;SDS011;54895;40.928;14.480;2024-02-23T07:13:20;6.20;;;3.78;;
63688;SDS011;54895;40.928;14.480;2024-02-23T07:15:47;5.90;;;3.72;;
63688;SDS011;54895;40.928;14.480;2024-02-23T07:18:13;7.28;;;3.90;;
63688;SDS011;54895;40.928;14.480;2024-02-23T07:20:39;6.30;;;3.95;;
63688;SDS011;54895;40.928;14.480;2024-02-23T07:23:06;6.63;;;3.45;;
63688;SDS011;54895;40.928;14.480;2024-02-23T07:25:33;8.05;;;3.83;;
63688;SDS011;54895;40.928;14.480;2024-02-23T07:27:59;7.07;;;4.05;;
63688;SDS011;54895;40.928;14.480;2024-02-23T07:30:25;5.25;;;3.72;;
63688;SDS011;54895;40.928;14.480;2024-02-23T07:32:52;9.45;;;4.30;;
63688;SDS011;54895;40.928;14.480;2024-02-23T07:35:18;8.90;;;4.07;;
63688;SDS011;54895;40.928;14.480;2024-02-23T07:37:44;6.35;;;4.00;;
63688;SDS011;54895;40.928;14.480;2024-02-23T07:40:11;8.40;;;4.10;;
63688;SDS011;54895;40.928;14.480;2024-02-23T07:42:38;6.53;;;4.40;;
63688;SDS011;54895;40.928;14.480;2024-02-23T07:45:05;5.90;;;4.63;;
63688;SDS011;54895;40.928;14.480;2024-02-23T07:47:33;7.00;;;4.32;;
63688;SDS011;54895;40.928;14.480;2024-02-23T07:49:59;7.40;;;4.30;;
63688;SDS011;54895;40.928;14.480;2024-02-23T07:52:25;9.48;;;4.18;;
63688;SDS011;54895;40.928;14.480;2024-02-23T07:54:52;8.55;;;4.50;;
63688;SDS011;54895;40.928;14.480;2024-02-23T07:57:19;9.73;;;4.45;;
63688;SDS011;54895;40.928;14.480;2024-02-23T07:59:45;10.20;;;4.05;;
63688;SDS011;54895;40.928;14.480;2024-02-23T08:02:12;7.63;;;4.05;;
63688;SDS011;54895;40.928;14.480;2024-02-23T08:04:39;8.60;;;3.20;;
63688;SDS011;54895;40.928;14.480;2024-02-23T08:07:06;6.78;;;3.25;;
63688;SDS011;54895;40.928;14.480;2024-02-23T08:09:32;5.63;;;2.95;;
63688;SDS011;54895;40.928;14.480;2024-02-23T08:11:58;8.70;;;3.83;;
63688;SDS011;54895;40.928;14.480;2024-02-23T08:14:25;4.38;;;3.00;;
63688;SDS011;54895;40.928;14.480;2024-02-23T08:16:51;5.85;;;3.08;;
63688;SDS011;54895;40.928;14.480;2024-02-23T08:19:17;4.93;;;3.00;;
63688;SDS011;54895;40.928;14.480;2024-02-23T08:21:43;7.25;;;2.80;;
63688;SDS011;54895;40.928;14.480;2024-02-23T08:26:59;7.68;;;3.15;;
63688;SDS011;54895;40.928;14.480;2024-02-23T08:29:25;7.20;;;3.17;;
63688;SDS011;54895;40.928;14.480;2024-02-23T08:31:52;6.82;;;3.15;;
63688;SDS011;54895;40.928;14.480;2024-02-23T08:34:19;5.93;;;3.17;;
63688;SDS011;54895;40.928;14.480;2024-02-23T08:36:45;5.32;;;3.28;;
63688;SDS011;54895;40.928;14.480;2024-02-23T08:39:11;6.07;;;3.45;;
63688;SDS011;54895;40.928;14.480;2024-02-23T08:41:37;5.82;;;3.63;;
63688;SDS011;54895;40.928;14.480;2024-02-23T08:44:04;7.25;;;3.45;;
63688;SDS011;54895;40.928;14.480;2024-02-23T08:46:31;7.28;;;3.40;;
63688;SDS011;54895;40.928;14.480;2024-02-23T08:48:57;6.35;;;3.50;;
63688;SDS011;54895;40.928;14.480;2024-02-23T08:51:23;5.75;;;3.65;;
63688;SDS011;54895;40.928;14.480;2024-02-23T08:53:49;4.65;;;3.08;;
63688;SDS011;54895;40.928;14.480;2024-02-23T08:56:16;9.15;;;3.45;;
63688;SDS011;54895;40.928;14.480;2024-02-23T08:58:42;9.70;;;3.30;;
63688;SDS011;54895;40.928;14.480;2024-02-23T09:01:08;6.10;;;3.08;;
63688;SDS011;54895;40.928;14.480;2024-02-23T09:03:35;8.02;;;3.60;;
63688;SDS011;54895;40.928;14.480;2024-02-23T09:06:01;7.20;;;3.85;;
63688;SDS011;54895;40.928;14.480;2024-02-23T09:08:29;6.63;;;3.40;;
63688;SDS011;54895;40.928;14.480;2024-02-23T09:10:55;5.15;;;2.92;;
63688;SDS011;54895;40.928;14.480;2024-02-23T09:13:22;6.78;;;2.70;;
63688;SDS011;54895;40.928;14.480;2024-02-23T09:15:48;5.82;;;3.30;;
63688;SDS011;54895;40.928;14.480;2024-02-23T09:18:14;8.10;;;3.42;;
63688;SDS011;54895;40.928;14.480;2024-02-23T09:20:40;6.68;;;3.45;;
63688;SDS011;54895;40.928;14.480;2024-02-23T09:23:07;7.25;;;3.63;;
63688;SDS011;54895;40.928;14.480;2024-02-23T09:25:33;7.57;;;3.25;;
63688;SDS011;54895;40.928;14.480;2024-02-23T09:27:59;5.32;;;2.88;;
63688;SDS011;54895;40.928;14.480;2024-02-23T09:30:25;5.15;;;3.05;;
63688;SDS011;54895;40.928;14.480;2024-02-23T09:32:52;7.82;;;3.20;;
63688;SDS011;54895;40.928;14.480;2024-02-23T09:35:18;5.22;;;3.20;;
63688;SDS011;54895;40.928;14.480;2024-02-23T09:37:44;7.50;;;4.25;;
63688;SDS011;54895;40.928;14.480;2024-02-23T09:40:10;6.22;;;3.90;;
63688;SDS011;54895;40.928;14.480;2024-02-23T09:42:37;5.53;;;3.17;;
63688;SDS011;54895;40.928;14.480;2024-02-23T09:45:05;5.72;;;2.90;;
63688;SDS011;54895;40.928;14.480;2024-02-23T09:47:32;4.65;;;2.97;;
63688;SDS011;54895;40.928;14.480;2024-02-23T09:49:59;7.57;;;2.78;;
63688;SDS011;54895;40.928;14.480;2024-02-23T09:52:29;5.03;;;2.38;;
63688;SDS011;54895;40.928;14.480;2024-02-23T09:54:56;6.35;;;2.42;;
63688;SDS011;54895;40.928;14.480;2024-02-23T09:57:22;6.95;;;2.97;;
63688;SDS011;54895;40.928;14.480;2024-02-23T09:59:49;7.85;;;2.95;;
63688;SDS011;54895;40.928;14.480;2024-02-23T10:02:17;5.60;;;3.10;;
63688;SDS011;54895;40.928;14.480;2024-02-23T10:04:44;6.22;;;2.80;;
63688;SDS011;54895;40.928;14.480;2024-02-23T10:07:10;6.10;;;3.00;;
63688;SDS011;54895;40.928;14.480;2024-02-23T10:09:40;7.68;;;2.90;;
63688;SDS011;54895;40.928;14.480;2024-02-23T10:12:06;4.53;;;2.88;;
63688;SDS011;54895;40.928;14.480;2024-02-23T10:14:33;6.18;;;2.85;;
63688;SDS011;54895;40.928;14.480;2024-02-23T10:16:59;7.40;;;2.92;;
63688;SDS011;54895;40.928;14.480;2024-02-23T10:19:27;4.57;;;2.90;;
63688;SDS011;54895;40.928;14.480;2024-02-23T10:21:55;5.05;;;3.08;;
63688;SDS011;54895;40.928;14.480;2024-02-23T10:28:40;7.72;;;2.83;;
63688;SDS011;54895;40.928;14.480;2024-02-23T10:31:06;5.32;;;2.78;;
63688;SDS011;54895;40.928;14.480;2024-02-23T10:33:33;3.58;;;2.40;;
63688;SDS011;54895;40.928;14.480;2024-02-23T10:36:01;5.47;;;3.05;;
63688;SDS011;54895;40.928;14.480;2024-02-23T10:38:32;7.35;;;3.08;;
63688;SDS011;54895;40.928;14.480;2024-02-23T10:40:58;3.60;;;2.70;;
63688;SDS011;54895;40.928;14.480;2024-02-23T10:43:33;5.13;;;3.10;;
63688;SDS011;54895;40.928;14.480;2024-02-23T10:46:05;6.10;;;2.60;;
63688;SDS011;54895;40.928;14.480;2024-02-23T10:48:34;4.53;;;2.60;;
63688;SDS011;54895;40.928;14.480;2024-02-23T10:51:02;6.68;;;2.90;;
63688;SDS011;54895;40.928;14.480;2024-02-23T10:53:29;5.85;;;2.95;;
63688;SDS011;54895;40.928;14.480;2024-02-23T10:55:57;4.15;;;2.75;;
63688;SDS011;54895;40.928;14.480;2024-02-23T10:58:26;4.45;;;2.55;;
63688;SDS011;54895;40.928;14.480;2024-02-23T11:00:59;6.68;;;2.92;;
63688;SDS011;54895;40.928;14.480;2024-02-23T11:03:30;5.82;;;2.55;;
63688;SDS011;54895;40.928;14.480;2024-02-23T11:05:59;8.55;;;3.40;;
63688;SDS011;54895;40.928;14.480;2024-02-23T11:08:29;4.40;;;2.88;;
63688;SDS011;54895;40.928;14.480;2024-02-23T11:10:55;4.78;;;2.65;;
63688;SDS011;54895;40.928;14.480;2024-02-23T11:13:34;4.60;;;2.90;;
63688;SDS011;54895;40.928;14.480;2024-02-23T11:16:01;5.93;;;2.40;;
63688;SDS011;54895;40.928;14.480;2024-02-23T11:18:29;4.63;;;2.60;;
63688;SDS011;54895;40.928;14.480;2024-02-23T11:20:56;8.55;;;3.65;;
63688;SDS011;54895;40.928;14.480;2024-02-23T11:23:24;3.85;;;2.70;;
63688;SDS011;54895;40.928;14.480;2024-02-23T11:30:07;5.10;;;2.83;;
63688;SDS011;54895;40.928;14.480;2024-02-23T11:32:45;4.88;;;2.92;;
63688;SDS011;54895;40.928;14.480;2024-02-23T11:35:20;8.10;;;2.65;;
63688;SDS011;54895;40.928;14.480;2024-02-23T11:37:52;5.28;;;2.70;;
63688;SDS011;54895;40.928;14.480;2024-02-23T11:40:27;4.15;;;2.60;;
63688;SDS011;54895;40.928;14.480;2024-02-23T11:42:55;2.47;;;1.80;;
63688;SDS011;54895;40.928;14.480;2024-02-23T11:45:23;5.63;;;2.35;;
63688;SDS011;54895;40.928;14.480;2024-02-23T11:47:50;5.78;;;2.60;;
63688;SDS011;54895;40.928;14.480;2024-02-23T11:50:16;8.20;;;2.90;;
63688;SDS011;54895;40.928;14.480;2024-02-23T11:52:45;6.07;;;3.10;;
63688;SDS011;54895;40.928;14.480;2024-02-23T11:55:12;5.88;;;2.60;;
63688;SDS011;54895;40.928;14.480;2024-02-23T11:57:47;7.18;;;2.88;;
63688;SDS011;54895;40.928;14.480;2024-02-23T12:00:14;6.05;;;2.85;;
63688;SDS011;54895;40.928;14.480;2024-02-23T12:02:41;5.13;;;2.60;;
63688;SDS011;54895;40.928;14.480;2024-02-23T12:05:07;5.07;;;2.28;;
63688;SDS011;54895;40.928;14.480;2024-02-23T12:07:33;5.85;;;2.50;;
63688;SDS011;54895;40.928;14.480;2024-02-23T12:10:00;5.38;;;3.03;;
63688;SDS011;54895;40.928;14.480;2024-02-23T12:12:27;6.80;;;1.92;;
63688;SDS011;54895;40.928;14.480;2024-02-23T12:14:53;4.57;;;2.08;;
63688;SDS011;54895;40.928;14.480;2024-02-23T12:17:20;5.82;;;2.30;;
63688;SDS011;54895;40.928;14.480;2024-02-23T12:19:46;3.25;;;2.33;;
63688;SDS011;54895;40.928;14.480;2024-02-23T12:22:12;5.10;;;2.38;;
63688;SDS011;54895;40.928;14.480;2024-02-23T12:24:40;7.90;;;2.72;;
63688;SDS011;54895;40.928;14.480;2024-02-23T12:27:07;4.75;;;2.72;;
63688;SDS011;54895;40.928;14.480;2024-02-23T12:32:19;5.85;;;2.63;;
63688;SDS011;54895;40.928;14.480;2024-02-23T12:34:46;3.97;;;2.90;;
63688;SDS011;54895;40.928;14.480;2024-02-23T12:37:16;9.18;;;3.20;;
63688;SDS011;54895;40.928;14.480;2024-02-23T12:39:43;9.57;;;2.60;;
63688;SDS011;54895;40.928;14.480;2024-02-23T12:42:10;4.13;;;2.33;;
63688;SDS011;54895;40.928;14.480;2024-02-23T12:44:36;5.63;;;2.95;;
63688;SDS011;54895;40.928;14.480;2024-02-23T12:47:02;11.68;;;3.28;;
63688;SDS011;54895;40.928;14.480;2024-02-23T12:49:29;7.03;;;3.28;;
63688;SDS011;54895;40.928;14.480;2024-02-23T12:51:55;8.85;;;3.08;;
63688;SDS011;54895;40.928;14.480;2024-02-23T12:54:22;8.77;;;2.88;;
63688;SDS011;54895;40.928;14.480;2024-02-23T12:56:48;7.43;;;3.30;;
63688;SDS011;54895;40.928;14.480;2024-02-23T12:59:15;3.90;;;2.50;;
63688;SDS011;54895;40.928;14.480;2024-02-23T13:01:42;5.60;;;3.00;;
63688;SDS011;54895;40.928;14.480;2024-02-23T13:04:08;5.15;;;2.28;;
63688;SDS011;54895;40.928;14.480;2024-02-23T13:06:37;7.05;;;2.63;;
63688;SDS011;54895;40.928;14.480;2024-02-23T13:09:04;3.45;;;2.05;;
63688;SDS011;54895;40.928;14.480;2024-02-23T13:11:31;4.03;;;1.85;;
63688;SDS011;54895;40.928;14.480;2024-02-23T13:13:57;5.32;;;2.05;;
63688;SDS011;54895;40.928;14.480;2024-02-23T13:16:24;2.33;;;1.85;;
63688;SDS011;54895;40.928;14.480;2024-02-23T13:18:50;5.93;;;2.40;;
63688;SDS011;54895;40.928;14.480;2024-02-23T13:21:17;4.20;;;2.70;;
63688;SDS011;54895;40.928;14.480;2024-02-23T13:23:44;6.53;;;3.20;;
63688;SDS011;54895;40.928;14.480;2024-02-23T13:26:10;7.40;;;3.28;;
63688;SDS011;54895;40.928;14.480;2024-02-23T13:28:36;4.93;;;2.80;;
63688;SDS011;54895;40.928;14.480;2024-02-23T13:33:50;7.05;;;2.90;;
63688;SDS011;54895;40.928;14.480;2024-02-23T13:36:16;5.10;;;3.10;;
63688;SDS011;54895;40.928;14.480;2024-02-23T13:38:43;4.97;;;3.10;;
63688;SDS011;54895;40.928;14.480;2024-02-23T13:41:09;5.80;;;3.00;;
63688;SDS011;54895;40.928;14.480;2024-02-23T13:43:35;5.63;;;3.42;;
63688;SDS011;54895;40.928;14.480;2024-02-23T13:46:02;8.52;;;3.10;;
63688;SDS011;54895;40.928;14.480;2024-02-23T13:48:29;6.30;;;3.17;;
63688;SDS011;54895;40.928;14.480;2024-02-23T13:50:56;4.90;;;2.83;;
63688;SDS011;54895;40.928;14.480;2024-02-23T13:53:22;4.47;;;2.40;;
63688;SDS011;54895;40.928;14.480;2024-02-23T13:55:49;7.47;;;2.25;;
63688;SDS011;54895;40.928;14.480;2024-02-23T13:58:16;5.10;;;2.40;;
63688;SDS011;54895;40.928;14.480;2024-02-23T14:00:43;5.47;;;2.50;;
63688;SDS011;54895;40.928;14.480;2024-02-23T14:03:10;4.85;;;2.50;;
63688;SDS011;54895;40.928;14.480;2024-02-23T14:08:10;4.28;;;2.20;;
63688;SDS011;54895;40.928;14.480;2024-02-23T14:10:37;5.40;;;2.58;;
63688;SDS011;54895;40.928;14.480;2024-02-23T14:13:03;4.53;;;1.60;;
63688;SDS011;54895;40.928;14.480;2024-02-23T14:15:29;6.72;;;2.78;;
63688;SDS011;54895;40.928;14.480;2024-02-23T14:17:56;3.78;;;2.20;;
63688;SDS011;54895;40.928;14.480;2024-02-23T14:20:22;4.35;;;2.05;;
63688;SDS011;54895;40.928;14.480;2024-02-23T14:22:48;4.55;;;1.98;;
63688;SDS011;54895;40.928;14.480;2024-02-23T14:25:16;5.85;;;2.40;;
63688;SDS011;54895;40.928;14.480;2024-02-23T14:27:42;7.75;;;2.03;;
63688;SDS011;54895;40.928;14.480;2024-02-23T14:34:05;7.13;;;2.83;;
63688;SDS011;54895;40.928;14.480;2024-02-23T14:36:31;6.38;;;2.17;;
63688;SDS011;54895;40.928;14.480;2024-02-23T14:39:00;6.07;;;2.20;;
63688;SDS011;54895;40.928;14.480;2024-02-23T14:41:26;10.25;;;2.20;;
63688;SDS011;54895;40.928;14.480;2024-02-23T14:43:53;5.47;;;2.13;;
63688;SDS011;54895;40.928;14.480;2024-02-23T14:46:19;6.28;;;2.60;;
63688;SDS011;54895;40.928;14.480;2024-02-23T14:48:45;4.65;;;2.47;;
63688;SDS011;54895;40.928;14.480;2024-02-23T14:51:14;4.68;;;2.72;;
63688;SDS011;54895;40.928;14.480;2024-02-23T14:53:41;5.70;;;2.17;;
63688;SDS011;54895;40.928;14.480;2024-02-23T14:56:07;4.90;;;2.70;;
63688;SDS011;54895;40.928;14.480;2024-02-23T14:58:34;7.65;;;2.88;;
63688;SDS011;54895;40.928;14.480;2024-02-23T15:01:01;7.13;;;2.97;;
63688;SDS011;54895;40.928;14.480;2024-02-23T15:03:27;5.65;;;3.17;;
63688;SDS011;54895;40.928;14.480;2024-02-23T15:05:53;5.03;;;2.78;;
63688;SDS011;54895;40.928;14.480;2024-02-23T15:08:20;6.78;;;3.15;;
63688;SDS011;54895;40.928;14.480;2024-02-23T15:10:46;6.53;;;3.08;;